createdAt,value
2023-05-14T00:01:41.847Z,102011.34
2023-05-14T00:04:08.344Z,102008.88
2023-05-14T00:06:34.798Z,102009.19
2023-05-14T00:09:01.251Z,102014.44
2023-05-14T00:11:27.727Z,102013.16
2023-05-14T00:13:54.219Z,101994.97
2023-05-14T00:16:20.707Z,101999.41
2023-05-14T00:18:47.299Z,101993.97
2023-05-14T00:21:13.897Z,101999.97
2023-05-14T00:23:40.491Z,101994.97
2023-05-14T00:26:06.947Z,101994.28
2023-05-14T00:28:33.510Z,101989.81
2023-05-14T00:31:00.419Z,101990.06
2023-05-14T00:33:26.995Z,101979.84
2023-05-14T00:35:53.493Z,101980.41
2023-05-14T00:38:19.971Z,101977.31
2023-05-14T00:40:51.225Z,101975.50
2023-05-14T00:43:19.486Z,101971.53
2023-05-14T00:45:46.241Z,101972.31
2023-05-14T00:48:13.502Z,101976.19
2023-05-14T00:50:40.078Z,101972.56
2023-05-14T00:53:10.260Z,101975.28
2023-05-14T00:55:38.217Z,101970.47
2023-05-14T00:58:09.282Z,101963.44
2023-05-14T01:00:36.963Z,101959.47
2023-05-14T01:03:04.538Z,101960.16
2023-05-14T01:05:43.721Z,101962.63
2023-05-14T01:08:50.751Z,101959.91
2023-05-14T01:11:29.190Z,101961.97
2023-05-14T01:14:19.570Z,101955.00
2023-05-14T01:16:47.658Z,101964.06
2023-05-14T01:19:33.465Z,101957.13
2023-05-14T01:22:00.002Z,101957.59
2023-05-14T01:24:26.523Z,101954.81
2023-05-14T01:26:57.066Z,101961.75
2023-05-14T01:29:26.637Z,101967.06
2023-05-14T01:31:57.390Z,101961.03
2023-05-14T01:34:28.288Z,101959.13
2023-05-14T01:36:56.905Z,101956.38
2023-05-14T01:39:24.992Z,101949.59
2023-05-14T01:41:52.669Z,101962.69
2023-05-14T01:44:19.588Z,101951.06
2023-05-14T01:46:46.098Z,101954.06
2023-05-14T01:49:12.635Z,101947.59
2023-05-14T01:51:39.242Z,101951.59
2023-05-14T01:54:05.834Z,101944.75
2023-05-14T01:56:32.316Z,101951.19
2023-05-14T01:58:58.777Z,101948.47
2023-05-14T02:01:26.222Z,101945.44
2023-05-14T02:03:52.903Z,101948.00
2023-05-14T02:06:19.582Z,101940.16
2023-05-14T02:08:46.083Z,101944.69
2023-05-14T02:11:12.626Z,101945.00
2023-05-14T02:13:39.093Z,101941.56
2023-05-14T02:16:06.153Z,101941.53
2023-05-14T02:18:32.720Z,101937.94
2023-05-14T02:20:59.326Z,101930.47
2023-05-14T02:23:37.771Z,101938.72
2023-05-14T02:26:08.453Z,101940.44
2023-05-14T02:28:34.907Z,101938.19
2023-05-14T02:31:01.569Z,101935.56
2023-05-14T02:33:28.569Z,101935.31
2023-05-14T02:35:55.129Z,101936.81
2023-05-14T02:38:22.458Z,101937.78
2023-05-14T02:40:48.969Z,101935.13
2023-05-14T02:43:15.404Z,101931.31
2023-05-14T02:45:41.884Z,101929.09
2023-05-14T02:48:08.604Z,101927.84
2023-05-14T02:50:35.334Z,101920.34
2023-05-14T02:53:01.918Z,101929.09
2023-05-14T02:55:28.492Z,101918.22
2023-05-14T02:57:55.009Z,101927.38
2023-05-14T03:00:21.953Z,101927.38
2023-05-14T03:02:49.211Z,101928.03
2023-05-14T03:05:16.631Z,101928.97
2023-05-14T03:07:43.091Z,101927.84
2023-05-14T03:10:09.927Z,101924.66
2023-05-14T03:12:36.416Z,101935.53
2023-05-14T03:15:02.966Z,101933.47
2023-05-14T03:17:29.532Z,101943.13
2023-05-14T03:19:55.970Z,101937.78
2023-05-14T03:22:22.505Z,101933.16
2023-05-14T03:24:48.976Z,101928.78
2023-05-14T03:27:15.533Z,101932.47
2023-05-14T03:29:42.001Z,101923.19
2023-05-14T03:32:08.605Z,101918.19
2023-05-14T03:34:35.203Z,101912.97
2023-05-14T03:37:01.643Z,101919.25
2023-05-14T03:39:28.083Z,101915.41
2023-05-14T03:41:56.988Z,101921.66
2023-05-14T03:44:23.495Z,101911.88
2023-05-14T03:46:49.965Z,101915.59
2023-05-14T03:49:16.426Z,101920.91
2023-05-14T03:51:42.985Z,101923.00
2023-05-14T03:54:09.790Z,101919.31
2023-05-14T03:56:36.741Z,101919.31
2023-05-14T03:59:03.208Z,101920.09
2023-05-14T04:01:29.726Z,101914.44
2023-05-14T04:03:56.207Z,101908.03
2023-05-14T04:06:22.723Z,101913.63
2023-05-14T04:08:49.239Z,101923.72
2023-05-14T04:11:15.673Z,101910.00
2023-05-14T04:13:42.196Z,101910.28
2023-05-14T04:16:08.710Z,101913.91
2023-05-14T04:18:35.763Z,101911.88
2023-05-14T04:21:02.972Z,101913.59
2023-05-14T04:23:31.714Z,101904.63
2023-05-14T04:25:58.862Z,101904.91
2023-05-14T04:28:25.657Z,101906.16
2023-05-14T04:30:52.465Z,101900.59
2023-05-14T04:33:18.892Z,101909.84
2023-05-14T04:35:45.959Z,101906.63
2023-05-14T04:38:14.180Z,101908.72
2023-05-14T04:40:44.203Z,101900.16
2023-05-14T04:43:10.865Z,101908.56
2023-05-14T04:45:37.433Z,101904.97
2023-05-14T04:48:05.066Z,101896.38
2023-05-14T04:50:32.386Z,101896.69
2023-05-14T04:52:58.823Z,101897.44
2023-05-14T04:55:25.307Z,101898.28
2023-05-14T04:57:51.733Z,101909.69
2023-05-14T05:00:19.260Z,101907.38
2023-05-14T05:02:45.898Z,101906.91
2023-05-14T05:05:12.442Z,101904.19
2023-05-14T05:07:38.912Z,101909.00
2023-05-14T05:10:06.116Z,101908.78
2023-05-14T05:12:32.600Z,101918.47
2023-05-14T05:14:59.054Z,101920.06
2023-05-14T05:17:25.670Z,101911.38
2023-05-14T05:19:52.709Z,101918.06
2023-05-14T05:22:20.220Z,101923.66
2023-05-14T05:24:49.696Z,101913.84
2023-05-14T05:27:16.621Z,101919.75
2023-05-14T05:29:44.297Z,101913.53
2023-05-14T05:32:10.932Z,101911.03
2023-05-14T05:34:37.500Z,101912.28
2023-05-14T05:37:05.925Z,101918.34
2023-05-14T05:39:35.000Z,101919.59
2023-05-14T05:42:02.672Z,101916.91
2023-05-14T05:44:29.247Z,101920.78
2023-05-14T05:46:57.291Z,101917.44
2023-05-14T05:49:25.121Z,101927.38
2023-05-14T05:51:51.643Z,101935.88
2023-05-14T05:54:18.109Z,101928.34
2023-05-14T05:56:44.570Z,101930.31
2023-05-14T05:59:11.171Z,101935.41
2023-05-14T06:01:37.861Z,101933.47
2023-05-14T06:04:06.390Z,101924.31
2023-05-14T06:06:33.073Z,101924.31
2023-05-14T06:08:59.712Z,101932.75
2023-05-14T06:11:26.626Z,101939.13
2023-05-14T06:13:53.659Z,101936.97
2023-05-14T06:16:20.309Z,101937.50
2023-05-14T06:18:47.063Z,101931.25
2023-05-14T06:21:13.573Z,101934.56
2023-05-14T06:23:40.518Z,101937.06
2023-05-14T06:26:07.003Z,101950.50
2023-05-14T06:28:33.827Z,101951.31
2023-05-14T06:31:00.433Z,101954.25
2023-05-14T06:33:31.110Z,101951.16
2023-05-14T06:36:03.538Z,101948.41
2023-05-14T06:38:30.270Z,101953.41
2023-05-14T06:40:56.891Z,101951.03
2023-05-14T06:43:23.372Z,101949.69
2023-05-14T06:45:50.517Z,101952.47
2023-05-14T06:48:21.403Z,101943.03
2023-05-14T06:50:49.211Z,101943.94
2023-05-14T06:53:16.181Z,101935.75
2023-05-14T06:55:42.780Z,101943.81
2023-05-14T06:58:09.841Z,101937.44
2023-05-14T07:00:36.384Z,101940.28
2023-05-14T07:03:02.935Z,101943.88
2023-05-14T07:05:29.627Z,101934.00
2023-05-14T07:07:56.137Z,101931.72
2023-05-14T07:10:23.047Z,101931.59
2023-05-14T07:12:49.793Z,101924.16
2023-05-14T07:15:16.432Z,101932.13
2023-05-14T07:17:43.019Z,101926.00
2023-05-14T07:20:10.106Z,101930.44
2023-05-14T07:22:36.631Z,101925.16
2023-05-14T07:25:03.291Z,101922.34
2023-05-14T07:27:29.827Z,101928.66
2023-05-14T07:29:56.300Z,101916.34
2023-05-14T07:32:25.024Z,101923.69
2023-05-14T07:34:51.744Z,101917.63
2023-05-14T07:37:18.319Z,101916.34
2023-05-14T07:39:44.774Z,101924.84
2023-05-14T07:42:15.166Z,101917.97
2023-05-14T07:44:46.044Z,101918.34
2023-05-14T07:47:12.571Z,101917.63
2023-05-14T07:49:39.184Z,101913.13
2023-05-14T07:52:05.639Z,101918.22
2023-05-14T07:54:32.128Z,101917.44
2023-05-14T07:56:58.665Z,101907.28
2023-05-14T07:59:25.170Z,101917.59
2023-05-14T08:01:51.814Z,101919.22
2023-05-14T08:04:18.453Z,101915.56
2023-05-14T08:06:44.989Z,101919.72
2023-05-14T08:09:11.533Z,101914.44
2023-05-14T08:11:39.143Z,101915.59
2023-05-14T08:14:05.790Z,101912.47
2023-05-14T08:16:32.319Z,101920.28
2023-05-14T08:18:58.865Z,101915.72
2023-05-14T08:21:25.411Z,101920.91
2023-05-14T08:23:52.006Z,101920.75
2023-05-14T08:26:18.452Z,101918.56
2023-05-14T08:28:44.909Z,101923.31
2023-05-14T08:31:11.573Z,101914.81
2023-05-14T08:33:38.163Z,101908.66
2023-05-14T08:36:04.985Z,101907.44
2023-05-14T08:38:31.494Z,101911.34
2023-05-14T08:40:58.846Z,101909.38
2023-05-14T08:43:30.744Z,101908.84
2023-05-14T08:46:05.779Z,101907.69
2023-05-14T08:48:34.137Z,101894.50
2023-05-14T08:51:02.028Z,101891.31
2023-05-14T08:53:28.566Z,101895.84
2023-05-14T08:55:55.066Z,101896.34
2023-05-14T08:58:21.700Z,101889.66
2023-05-14T09:00:48.344Z,101901.28
2023-05-14T09:03:15.972Z,101885.72
2023-05-14T09:05:43.200Z,101881.94
2023-05-14T09:08:09.764Z,101880.63
2023-05-14T09:10:36.246Z,101882.06
2023-05-14T09:13:02.720Z,101881.56
2023-05-14T09:15:30.414Z,101870.91
2023-05-14T09:17:57.076Z,101878.59
2023-05-14T09:20:25.127Z,101876.72
2023-05-14T09:22:54.881Z,101876.25
2023-05-14T09:25:27.496Z,101868.81
2023-05-14T09:27:56.684Z,101868.59
2023-05-14T09:30:25.466Z,101866.28
2023-05-14T09:32:54.713Z,101854.53
2023-05-14T09:35:24.922Z,101859.69
2023-05-14T09:37:53.548Z,101853.28
2023-05-14T09:40:22.400Z,101856.81
2023-05-14T09:42:49.676Z,101848.28
2023-05-14T09:45:16.840Z,101847.22
2023-05-14T09:47:45.000Z,101849.19
2023-05-14T09:50:12.241Z,101853.47
2023-05-14T09:52:39.062Z,101851.94
2023-05-14T09:55:06.391Z,101855.09
2023-05-14T09:57:33.526Z,101859.88
2023-05-14T10:00:00.176Z,101847.28
2023-05-14T10:02:37.408Z,101850.03
2023-05-14T10:05:08.320Z,101848.94
2023-05-14T10:07:44.676Z,101851.31
2023-05-14T10:10:16.912Z,101842.78
2023-05-14T10:12:52.480Z,101834.47
2023-05-14T10:15:33.721Z,101841.09
2023-05-14T10:18:07.995Z,101830.84
2023-05-14T10:20:36.622Z,101830.47
2023-05-14T10:23:03.355Z,101834.91
2023-05-14T10:25:30.126Z,101837.25
2023-05-14T10:27:57.044Z,101838.81
2023-05-14T10:30:24.102Z,101832.88
2023-05-14T10:33:07.196Z,101834.53
2023-05-14T10:35:51.986Z,101823.22
2023-05-14T10:38:23.115Z,101822.50
2023-05-14T10:40:51.617Z,101819.75
2023-05-14T10:43:20.283Z,101816.59
2023-05-14T10:45:47.075Z,101812.66
2023-05-14T10:48:14.347Z,101814.56
2023-05-14T10:50:41.975Z,101809.47
2023-05-14T10:53:12.824Z,101811.44
2023-05-14T10:55:39.523Z,101803.94
2023-05-14T10:58:06.260Z,101806.69
2023-05-14T11:00:35.684Z,101803.13
2023-05-14T11:03:05.327Z,101800.03
2023-05-14T11:05:33.659Z,101801.22
2023-05-14T11:08:04.131Z,101799.66
2023-05-14T11:10:30.958Z,101798.06
2023-05-14T11:12:58.158Z,101796.50
2023-05-14T11:15:26.187Z,101796.53
2023-05-14T11:17:53.964Z,101789.41
2023-05-14T11:20:21.295Z,101791.81
2023-05-14T11:22:49.061Z,101786.31
2023-05-14T11:25:15.652Z,101785.50
2023-05-14T11:27:44.818Z,101788.25
2023-05-14T11:30:19.346Z,101782.34
2023-05-14T11:32:47.468Z,101776.47
2023-05-14T11:35:15.282Z,101772.94
2023-05-14T11:37:42.296Z,101769.75
2023-05-14T11:40:18.997Z,101771.28
2023-05-14T11:42:45.978Z,101765.34
2023-05-14T11:45:13.752Z,101753.91
2023-05-14T11:47:43.212Z,101756.63
2023-05-14T11:50:11.122Z,101757.38
2023-05-14T11:52:40.412Z,101759.72
2023-05-14T11:55:11.384Z,101756.91
2023-05-14T11:57:37.897Z,101760.88
2023-05-14T12:00:09.221Z,101752.13
2023-05-14T12:02:36.322Z,101750.66
2023-05-14T12:05:03.127Z,101748.63
2023-05-14T12:07:30.592Z,101747.75
2023-05-14T12:10:01.520Z,101742.16
2023-05-14T12:12:28.000Z,101745.72
2023-05-14T12:14:54.464Z,101733.81
2023-05-14T12:17:22.831Z,101733.28
2023-05-14T12:19:52.164Z,101727.41
2023-05-14T12:22:20.997Z,101725.72
2023-05-14T12:24:55.173Z,101733.41
2023-05-14T12:27:24.167Z,101733.09
2023-05-14T12:32:26.719Z,101721.81
2023-05-14T12:34:53.199Z,101728.31
2023-05-14T12:37:19.858Z,101720.59
2023-05-14T12:39:46.393Z,101715.19
2023-05-14T12:42:14.309Z,101721.94
2023-05-14T12:44:40.816Z,101713.81
2023-05-14T12:47:07.390Z,101700.97
2023-05-14T12:49:34.136Z,101709.41
2023-05-14T12:52:19.479Z,101704.22
2023-05-14T12:54:47.038Z,101694.53
2023-05-14T12:57:13.794Z,101698.28
2023-05-14T12:59:40.885Z,101694.72
2023-05-14T13:02:07.624Z,101699.78
2023-05-14T13:04:34.159Z,101701.16
2023-05-14T13:07:00.710Z,101699.97
2023-05-14T13:09:27.854Z,101692.78
2023-05-14T13:11:54.549Z,101699.41
2023-05-14T13:14:21.051Z,101696.03
2023-05-14T13:16:47.583Z,101685.00
2023-05-14T13:19:14.106Z,101678.31
2023-05-14T13:21:40.616Z,101686.28
2023-05-14T13:24:07.236Z,101694.09
2023-05-14T13:26:33.751Z,101682.66
2023-05-14T13:29:00.380Z,101687.41
2023-05-14T13:31:26.936Z,101680.38
2023-05-14T13:33:53.573Z,101679.69
2023-05-14T13:36:20.128Z,101680.50
2023-05-14T13:38:46.676Z,101675.94
2023-05-14T13:41:13.173Z,101662.19
2023-05-14T13:43:39.828Z,101668.41
2023-05-14T13:46:06.850Z,101665.03
2023-05-14T13:48:34.228Z,101670.22
2023-05-14T13:51:00.713Z,101664.84
2023-05-14T13:53:27.295Z,101655.75
2023-05-14T13:55:58.302Z,101649.44
2023-05-14T13:58:25.511Z,101655.59
2023-05-14T14:00:52.785Z,101653.31
2023-05-14T14:03:19.423Z,101645.38
2023-05-14T14:05:46.083Z,101645.56
2023-05-14T14:08:22.720Z,101640.91
2023-05-14T14:10:50.727Z,101647.34
2023-05-14T14:13:17.210Z,101643.88
2023-05-14T14:15:44.333Z,101643.09
2023-05-14T14:18:11.018Z,101639.56
2023-05-14T14:20:37.562Z,101641.47
2023-05-14T14:23:04.242Z,101641.13
2023-05-14T14:25:30.678Z,101636.84
2023-05-14T14:27:57.138Z,101633.16
2023-05-14T14:30:23.622Z,101637.50
2023-05-14T14:32:50.662Z,101630.09
2023-05-14T14:35:18.308Z,101624.94
2023-05-14T14:37:49.097Z,101632.22
2023-05-14T14:40:16.680Z,101636.72
2023-05-14T14:42:43.426Z,101629.50
2023-05-14T14:45:10.729Z,101629.13
2023-05-14T14:47:37.359Z,101633.06
2023-05-14T14:50:04.423Z,101625.75
2023-05-14T14:52:31.228Z,101624.91
2023-05-14T14:54:57.822Z,101621.38
2023-05-14T14:57:24.341Z,101627.16
2023-05-14T14:59:50.848Z,101628.09
2023-05-14T15:02:17.433Z,101629.28
2023-05-14T15:04:43.905Z,101630.34
2023-05-14T15:07:10.415Z,101626.16
2023-05-14T15:09:36.918Z,101627.31
2023-05-14T15:12:03.626Z,101626.88
2023-05-14T15:14:30.074Z,101625.03
2023-05-14T15:16:56.631Z,101622.66
2023-05-14T15:19:23.133Z,101627.78
2023-05-14T15:21:50.088Z,101615.09
2023-05-14T15:24:16.522Z,101620.31
2023-05-14T15:26:43.032Z,101614.09
2023-05-14T15:29:09.596Z,101620.09
2023-05-14T15:31:36.266Z,101615.06
2023-05-14T15:34:03.607Z,101613.19
2023-05-14T15:36:30.083Z,101612.00
2023-05-14T15:38:56.592Z,101602.88
2023-05-14T15:41:26.125Z,101610.81
2023-05-14T15:43:52.545Z,101595.00
2023-05-14T15:46:19.054Z,101593.03
2023-05-14T15:48:45.774Z,101582.78
2023-05-14T15:51:12.736Z,101587.13
2023-05-14T15:53:39.299Z,101591.88
2023-05-14T15:56:06.105Z,101582.88
2023-05-14T15:58:32.555Z,101591.50
2023-05-14T16:00:59.080Z,101581.97
2023-05-14T16:03:25.740Z,101582.75
2023-05-14T16:05:52.357Z,101592.59
2023-05-14T16:08:18.899Z,101589.09
2023-05-14T16:10:45.473Z,101595.09
2023-05-14T16:13:11.914Z,101593.56
2023-05-14T16:15:39.800Z,101594.81
2023-05-14T16:18:06.555Z,101604.63
2023-05-14T16:20:33.081Z,101589.63
2023-05-14T16:22:59.549Z,101590.09
2023-05-14T16:25:26.085Z,101597.25
2023-05-14T16:27:52.722Z,101595.22
2023-05-14T16:30:19.223Z,101602.72
2023-05-14T16:32:49.337Z,101605.97
2023-05-14T16:35:16.776Z,101605.56
2023-05-14T16:37:43.294Z,101603.19
2023-05-14T16:40:11.610Z,101609.97
2023-05-14T16:42:38.665Z,101608.44
2023-05-14T16:45:05.468Z,101606.88
2023-05-14T16:47:32.005Z,101600.59
2023-05-14T16:49:58.644Z,101603.38
2023-05-14T16:52:25.178Z,101607.31
2023-05-14T16:54:51.687Z,101611.69
2023-05-14T16:57:18.212Z,101619.97
2023-05-14T16:59:44.688Z,101619.22
2023-05-14T17:02:11.144Z,101618.81
2023-05-14T17:04:40.934Z,101622.34
2023-05-14T17:07:07.811Z,101626.31
2023-05-14T17:09:34.353Z,101630.66
2023-05-14T17:12:01.135Z,101624.38
2023-05-14T17:14:27.599Z,101625.56
2023-05-14T17:16:54.370Z,101624.75
2023-05-14T17:19:21.041Z,101620.78
2023-05-14T17:21:47.537Z,101623.94
2023-05-14T17:24:13.989Z,101631.03
2023-05-14T17:26:40.473Z,101629.44
2023-05-14T17:29:06.981Z,101624.72
2023-05-14T17:31:33.610Z,101626.25
2023-05-14T17:34:00.748Z,101623.47
2023-05-14T17:36:28.591Z,101623.81
2023-05-14T17:38:55.333Z,101625.41
2023-05-14T17:41:21.862Z,101625.41
2023-05-14T17:43:48.497Z,101627.34
2023-05-14T17:46:15.039Z,101626.13
2023-05-14T17:48:41.515Z,101630.06
2023-05-14T17:51:07.991Z,101632.34
2023-05-14T17:53:34.512Z,101630.28
2023-05-14T17:56:01.047Z,101632.56
2023-05-14T17:58:27.652Z,101630.94
2023-05-14T18:00:54.139Z,101636.47
2023-05-14T18:03:20.682Z,101639.97
2023-05-14T18:05:47.386Z,101643.03
2023-05-14T18:08:14.571Z,101642.22
2023-05-14T18:10:41.041Z,101637.47
2023-05-14T18:13:07.536Z,101647.31
2023-05-14T18:15:36.041Z,101651.22
2023-05-14T18:18:02.665Z,101652.78
2023-05-14T18:20:29.176Z,101648.75
2023-05-14T18:22:55.635Z,101658.41
2023-05-14T18:25:22.355Z,101648.41
2023-05-14T18:27:49.168Z,101648.59
2023-05-14T18:30:16.063Z,101651.75
2023-05-14T18:32:44.115Z,101654.88
2023-05-14T18:35:11.583Z,101659.34
2023-05-14T18:37:38.033Z,101659.72
2023-05-14T18:40:06.943Z,101664.41
2023-05-14T18:42:33.975Z,101670.66
2023-05-14T18:45:00.606Z,101663.94
2023-05-14T18:47:27.287Z,101660.31
2023-05-14T18:49:55.779Z,101672.25
2023-05-14T18:52:22.922Z,101675.78
2023-05-14T18:54:50.841Z,101679.25
2023-05-14T18:57:17.525Z,101686.06
2023-05-14T18:59:44.024Z,101681.44
2023-05-14T19:02:10.895Z,101684.84
2023-05-14T19:04:50.660Z,101685.13
2023-05-14T19:07:18.873Z,101686.47
2023-05-14T19:09:45.684Z,101685.38
2023-05-14T19:12:12.623Z,101687.75
2023-05-14T19:14:39.121Z,101679.97
2023-05-14T19:17:05.787Z,101684.44
2023-05-14T19:19:32.650Z,101682.56
2023-05-14T19:21:59.151Z,101689.13
2023-05-14T19:24:25.828Z,101679.09
2023-05-14T19:26:52.687Z,101680.59
2023-05-14T19:29:19.176Z,101681.59
2023-05-14T19:31:45.664Z,101672.41
2023-05-14T19:34:12.365Z,101676.97
2023-05-14T19:36:38.848Z,101674.03
2023-05-14T19:39:05.299Z,101676.75
2023-05-14T19:41:31.797Z,101670.00
2023-05-14T19:43:58.248Z,101670.50
2023-05-14T19:46:24.796Z,101663.38
2023-05-14T19:48:51.364Z,101672.97
2023-05-14T19:51:18.090Z,101673.53
2023-05-14T19:53:45.186Z,101676.13
2023-05-14T19:56:11.644Z,101681.59
2023-05-14T19:58:38.189Z,101680.31
2023-05-14T20:01:04.771Z,101682.81
2023-05-14T20:03:32.180Z,101675.25
2023-05-14T20:05:59.038Z,101677.56
2023-05-14T20:08:25.578Z,101678.91
2023-05-14T20:10:52.348Z,101686.75
2023-05-14T20:13:18.852Z,101687.72
2023-05-14T20:15:45.393Z,101687.00
2023-05-14T20:18:12.045Z,101679.78
2023-05-14T20:20:39.952Z,101684.03
2023-05-14T20:23:06.500Z,101675.84
2023-05-14T20:25:33.257Z,101678.94
2023-05-14T20:28:03.084Z,101677.84
2023-05-14T20:30:29.607Z,101671.53
2023-05-14T20:32:56.434Z,101668.47
2023-05-14T20:35:23.243Z,101673.31
2023-05-14T20:37:49.992Z,101668.19
2023-05-14T20:40:16.691Z,101666.91
2023-05-14T20:42:43.283Z,101667.63
2023-05-14T20:45:10.408Z,101665.63
2023-05-14T20:47:37.011Z,101660.84
2023-05-14T20:50:04.591Z,101669.31
2023-05-14T20:52:31.202Z,101667.38
2023-05-14T20:54:59.419Z,101667.81
2023-05-14T20:57:28.214Z,101668.97
2023-05-14T20:59:54.734Z,101671.69
2023-05-14T21:02:21.499Z,101661.56
2023-05-14T21:04:48.220Z,101654.16
2023-05-14T21:07:14.828Z,101663.16
2023-05-14T21:09:41.449Z,101664.03
2023-05-14T21:12:08.319Z,101658.94
2023-05-14T21:14:34.882Z,101651.44
2023-05-14T21:17:01.431Z,101652.75
2023-05-14T21:19:27.897Z,101657.59
2023-05-14T21:21:54.377Z,101654.63
2023-05-14T21:24:20.852Z,101659.00
2023-05-14T21:26:47.378Z,101654.72
2023-05-14T21:29:13.900Z,101655.06
2023-05-14T21:31:40.773Z,101665.72
2023-05-14T21:34:07.278Z,101660.94
2023-05-14T21:36:33.854Z,101657.19
2023-05-14T21:39:00.491Z,101661.13
2023-05-14T21:41:27.008Z,101661.59
2023-05-14T21:43:53.526Z,101653.97
2023-05-14T21:46:20.119Z,101654.06
2023-05-14T21:48:46.707Z,101660.47
2023-05-14T21:51:13.353Z,101650.84
2023-05-14T21:53:39.829Z,101654.22
2023-05-14T21:56:07.118Z,101635.97
2023-05-14T21:58:33.854Z,101644.97
2023-05-14T22:01:00.411Z,101646.66
2023-05-14T22:03:26.933Z,101632.31
2023-05-14T22:05:53.522Z,101638.44
2023-05-14T22:08:20.046Z,101637.22
2023-05-14T22:10:47.128Z,101642.84
2023-05-14T22:13:13.677Z,101652.97
2023-05-14T22:15:40.805Z,101646.06
2023-05-14T22:18:07.402Z,101637.69
2023-05-14T22:20:33.941Z,101644.22
2023-05-14T22:23:00.527Z,101629.22
2023-05-14T22:25:27.315Z,101634.31
2023-05-14T22:27:54.092Z,101633.19
2023-05-14T22:30:21.157Z,101625.13
2023-05-14T22:32:47.757Z,101621.47
2023-05-14T22:35:14.453Z,101628.28
2023-05-14T22:37:40.986Z,101631.81
2023-05-14T22:40:08.866Z,101631.28
2023-05-14T22:42:35.632Z,101612.06
2023-05-14T22:45:02.110Z,101616.66
2023-05-14T22:47:28.801Z,101619.72
2023-05-14T22:49:55.294Z,101610.72
2023-05-14T22:52:21.866Z,101611.78
2023-05-14T22:54:51.001Z,101615.22
2023-05-14T22:57:18.027Z,101613.81
2023-05-14T22:59:44.484Z,101609.69
2023-05-14T23:02:11.215Z,101620.53
2023-05-14T23:04:37.816Z,101618.13
2023-05-14T23:07:04.544Z,101618.25
2023-05-14T23:09:30.993Z,101607.81
2023-05-14T23:11:57.461Z,101611.50
2023-05-14T23:14:23.909Z,101602.06
2023-05-14T23:16:50.479Z,101608.50
2023-05-14T23:19:17.058Z,101609.75
2023-05-14T23:21:43.662Z,101602.47
2023-05-14T23:24:10.183Z,101606.56
2023-05-14T23:26:36.747Z,101598.00
2023-05-14T23:29:03.257Z,101599.16
2023-05-14T23:31:29.864Z,101596.56
2023-05-14T23:33:57.045Z,101599.75
2023-05-14T23:36:23.862Z,101594.09
2023-05-14T23:38:50.558Z,101589.84
2023-05-14T23:41:17.012Z,101593.16
2023-05-14T23:43:43.534Z,101584.38
2023-05-14T23:46:10.341Z,101573.28
2023-05-14T23:48:37.052Z,101575.22
2023-05-14T23:51:03.616Z,101559.84
2023-05-14T23:53:30.157Z,101556.41
2023-05-14T23:55:56.690Z,101554.63
2023-05-14T23:58:23.237Z,101549.63
